CPX676 Details

Departure: Providenciales International Airport (MBPV)
Arrival: Lynden Pindling International Airport (MYNN)
Route: PVN BR2L DUKKY A555 ZQA


Current Weather Information
MBPV 242200Z 03005KT 9999 SCT012 BKN035 25/23 Q1013 RE RA
MYNN 250200Z 08008KT 9999 FEW030 25/19 A3007